Time;durP1;ratioP1;P1;durP2;ratioP2;P2;SDS_P1;SDS_P2;PMS_P1;PMS_P2;Temp;Humidity;BMP_temperature;BMP_pressure;BME280_temperature;BME280_humidity;BME280_pressure;Samples;Min_cycle;Max_cycle;Signal;HPM_P1;HPM_P2
2022/10/15 00:02:19;;;;;;;6.95;3.70;;;;;;;;;;5093374;28;20060;-80
2022/10/15 00:04:51;;;;;;;7.82;3.47;;;;;;;;;;5091981;28;20071;-81
2022/10/15 00:07:25;;;;;;;6.45;3.25;;;;;;;;;;5091843;28;20459;-82
2022/10/15 00:09:59;;;;;;;8.55;3.58;;;;;;;;;;5091978;28;20048;-80
2022/10/15 00:12:26;;;;;;;6.05;3.30;;;;;;;;;;5087289;28;20044;-80
2022/10/15 00:14:59;;;;;;;5.80;3.42;;;;;;;;;;5073122;28;20055;-80
2022/10/15 00:17:32;;;;;;;6.40;3.53;;;;;;;;;;5071550;28;20420;-81
2022/10/15 00:20:07;;;;;;;8.57;3.58;;;;;;;;;;5083079;28;20048;-81
2022/10/15 00:22:40;;;;;;;5.57;3.00;;;;;;;;;;5074425;28;20051;-80
2022/10/15 00:25:09;;;;;;;7.93;3.67;;;;;;;;;;5080741;28;20044;-79
2022/10/15 00:27:37;;;;;;;6.05;3.22;;;;;;;;;;5086499;28;20044;-80
2022/10/15 00:30:11;;;;;;;8.77;3.58;;;;;;;;;;5082306;28;20061;-80
2022/10/15 00:32:44;;;;;;;8.55;3.80;;;;;;;;;;5077817;28;20044;-80
2022/10/15 00:35:11;;;;;;;5.53;3.40;;;;;;;;;;5083760;28;20055;-81
2022/10/15 00:37:39;;;;;;;7.82;3.63;;;;;;;;;;5081602;28;20198;-80
2022/10/15 00:40:14;;;;;;;6.05;3.42;;;;;;;;;;5085622;28;20496;-81
2022/10/15 00:42:47;;;;;;;6.15;3.42;;;;;;;;;;5088161;28;20048;-80
2022/10/15 00:45:20;;;;;;;8.93;3.70;;;;;;;;;;5086530;28;20059;-80
2022/10/15 00:47:53;;;;;;;7.38;3.80;;;;;;;;;;5094030;28;20048;-81
2022/10/15 00:50:27;;;;;;;9.20;3.97;;;;;;;;;;5082627;28;20056;-80
2022/10/15 00:53:03;;;;;;;7.85;3.72;;;;;;;;;;5086101;28;20055;-81
2022/10/15 00:55:38;;;;;;;6.53;3.80;;;;;;;;;;5091727;28;20416;-82
2022/10/15 00:58:13;;;;;;;9.20;4.07;;;;;;;;;;5092436;28;20044;-81
2022/10/15 01:00:46;;;;;;;8.75;4.40;;;;;;;;;;5086626;28;20505;-80
2022/10/15 01:03:19;;;;;;;9.93;4.43;;;;;;;;;;5084324;28;20055;-80
2022/10/15 01:05:48;;;;;;;7.50;4.15;;;;;;;;;;5095579;28;20036;-81
2022/10/15 01:08:20;;;;;;;8.75;4.70;;;;;;;;;;5093314;28;20071;-80
2022/10/15 01:11:00;;;;;;;6.35;3.83;;;;;;;;;;5091169;28;20114;-81
2022/10/15 01:13:37;;;;;;;7.60;4.10;;;;;;;;;;5092571;28;20126;-80
2022/10/15 01:16:13;;;;;;;8.20;4.13;;;;;;;;;;5092650;28;20044;-80
2022/10/15 01:18:43;;;;;;;6.63;3.83;;;;;;;;;;5093375;28;20061;-80
2022/10/15 01:21:17;;;;;;;7.28;4.22;;;;;;;;;;5080739;28;20059;-81
2022/10/15 01:24:05;;;;;;;6.93;3.95;;;;;;;;;;5085566;28;20040;-80
2022/10/15 01:26:51;;;;;;;7.60;4.30;;;;;;;;;;5089110;28;20043;-81
2022/10/15 01:29:32;;;;;;;9.60;4.57;;;;;;;;;;5096083;28;20048;-81
2022/10/15 01:32:08;;;;;;;9.13;4.70;;;;;;;;;;5104498;28;20043;-82
2022/10/15 01:34:38;;;;;;;9.25;4.85;;;;;;;;;;5086332;28;20043;-80
2022/10/15 01:37:08;;;;;;;11.27;5.03;;;;;;;;;;5089653;28;20508;-81
2022/10/15 01:39:39;;;;;;;12.82;5.10;;;;;;;;;;5089536;28;20055;-84
2022/10/15 01:42:13;;;;;;;10.20;4.70;;;;;;;;;;5095103;28;20048;-81
2022/10/15 01:44:49;;;;;;;9.93;4.68;;;;;;;;;;5089135;28;20048;-81
2022/10/15 01:47:48;;;;;;;8.57;4.68;;;;;;;;;;5080006;28;20103;-80
2022/10/15 01:50:24;;;;;;;8.13;4.43;;;;;;;;;;5087350;28;20048;-81
2022/10/15 01:52:58;;;;;;;9.38;5.18;;;;;;;;;;5086869;28;20055;-80
2022/10/15 01:55:31;;;;;;;10.40;4.95;;;;;;;;;;5085681;28;20052;-81
2022/10/15 01:58:04;;;;;;;8.68;5.10;;;;;;;;;;5091127;28;20712;-81
2022/10/15 02:00:37;;;;;;;10.32;5.18;;;;;;;;;;5084963;28;20035;-82
2022/10/15 02:03:11;;;;;;;11.35;5.35;;;;;;;;;;5078063;28;20404;-80
2022/10/15 02:05:48;;;;;;;11.20;5.45;;;;;;;;;;5085430;28;20047;-80
2022/10/15 02:08:28;;;;;;;14.80;6.18;;;;;;;;;;5075753;28;20051;-81
2022/10/15 02:10:58;;;;;;;10.02;5.50;;;;;;;;;;5084076;28;20538;-81
2022/10/15 02:13:32;;;;;;;14.73;5.60;;;;;;;;;;5092166;28;20056;-82
2022/10/15 02:16:11;;;;;;;9.40;5.53;;;;;;;;;;5078231;28;20052;-82
2022/10/15 02:18:42;;;;;;;10.05;5.72;;;;;;;;;;5081695;28;20058;-82
2022/10/15 02:21:16;;;;;;;10.80;5.57;;;;;;;;;;5083177;28;20386;-83
2022/10/15 02:23:52;;;;;;;13.50;5.20;;;;;;;;;;5101544;28;20046;-84
2022/10/15 02:26:25;;;;;;;8.57;5.50;;;;;;;;;;5086440;28;20048;-83
2022/10/15 02:28:55;;;;;;;11.60;5.90;;;;;;;;;;5086520;28;20063;-83
2022/10/15 02:31:30;;;;;;;9.65;5.68;;;;;;;;;;5083572;28;20048;-83
2022/10/15 02:34:09;;;;;;;14.30;6.07;;;;;;;;;;5088102;28;20489;-81
2022/10/15 02:36:42;;;;;;;12.00;6.07;;;;;;;;;;5094742;28;20047;-80
2022/10/15 02:39:17;;;;;;;10.32;5.72;;;;;;;;;;5079418;28;20044;-80
2022/10/15 02:41:51;;;;;;;10.23;5.68;;;;;;;;;;5079828;28;20047;-81
2022/10/15 02:44:26;;;;;;;10.25;6.40;;;;;;;;;;5096227;28;20051;-81
2022/10/15 02:46:59;;;;;;;12.23;6.50;;;;;;;;;;5076544;28;20041;-80
2022/10/15 02:49:28;;;;;;;12.38;6.82;;;;;;;;;;5083787;28;20060;-80
2022/10/15 02:52:02;;;;;;;13.88;7.60;;;;;;;;;;5084428;28;20501;-81
2022/10/15 02:54:35;;;;;;;11.75;7.25;;;;;;;;;;5087863;28;20044;-81
2022/10/15 02:57:09;;;;;;;12.38;7.13;;;;;;;;;;5080108;28;20071;-80
2022/10/15 02:59:43;;;;;;;14.23;7.68;;;;;;;;;;5087185;28;20052;-81
2022/10/15 03:02:11;;;;;;;12.70;7.82;;;;;;;;;;5076544;28;20053;-81
2022/10/15 03:04:40;;;;;;;12.35;7.40;;;;;;;;;;5057527;28;813608;-81
2022/10/15 03:07:14;;;;;;;11.75;7.25;;;;;;;;;;5073260;28;20059;-82
2022/10/15 03:09:48;;;;;;;13.93;7.40;;;;;;;;;;5084042;28;20048;-81
2022/10/15 03:12:22;;;;;;;12.75;7.78;;;;;;;;;;5096737;28;20060;-81
2022/10/15 03:14:51;;;;;;;13.70;7.75;;;;;;;;;;5082469;28;20661;-81
2022/10/15 03:17:24;;;;;;;15.50;8.32;;;;;;;;;;5086478;28;20066;-80
2022/10/15 03:19:58;;;;;;;13.52;8.10;;;;;;;;;;5075050;28;20048;-80
2022/10/15 03:22:35;;;;;;;15.55;8.18;;;;;;;;;;5089986;28;20044;-81
2022/10/15 03:25:08;;;;;;;17.42;8.68;;;;;;;;;;5085160;28;20546;-81
2022/10/15 03:27:36;;;;;;;15.20;8.52;;;;;;;;;;5080890;28;20047;-81
2022/10/15 03:30:21;;;;;;;16.45;8.63;;;;;;;;;;5083883;28;20052;-80
2022/10/15 03:32:54;;;;;;;16.55;9.65;;;;;;;;;;5085717;28;20056;-80
2022/10/15 03:35:28;;;;;;;16.00;8.95;;;;;;;;;;5087351;28;20413;-82
2022/10/15 03:38:01;;;;;;;16.45;9.32;;;;;;;;;;5086746;28;20048;-81
2022/10/15 03:40:34;;;;;;;16.92;9.45;;;;;;;;;;5095428;28;20056;-81
2022/10/15 03:43:17;;;;;;;14.30;8.85;;;;;;;;;;5083498;28;20059;-80
2022/10/15 03:45:50;;;;;;;14.77;8.68;;;;;;;;;;5079998;28;20048;-81
2022/10/15 03:48:24;;;;;;;18.08;8.95;;;;;;;;;;5096987;28;20055;-81
2022/10/15 03:50:58;;;;;;;16.70;8.93;;;;;;;;;;5084341;28;20049;-82
2022/10/15 03:53:30;;;;;;;13.35;8.38;;;;;;;;;;5079891;28;20048;-81
2022/10/15 03:56:02;;;;;;;16.07;9.17;;;;;;;;;;5079690;28;20059;-81
2022/10/15 03:58:38;;;;;;;15.23;9.40;;;;;;;;;;5073564;28;20432;-81
2022/10/15 04:01:10;;;;;;;16.80;8.77;;;;;;;;;;5080833;28;20056;-81
2022/10/15 04:03:43;;;;;;;14.45;8.95;;;;;;;;;;5084423;28;20051;-81
2022/10/15 04:06:12;;;;;;;16.05;8.85;;;;;;;;;;5077668;28;20045;-81
2022/10/15 04:08:45;;;;;;;16.58;8.82;;;;;;;;;;5081157;28;20051;-81
2022/10/15 04:11:25;;;;;;;16.92;9.32;;;;;;;;;;5089904;28;20057;-81
2022/10/15 04:14:01;;;;;;;16.63;9.00;;;;;;;;;;5075475;28;20045;-81
2022/10/15 04:16:31;;;;;;;14.35;8.95;;;;;;;;;;5080692;28;20067;-81
2022/10/15 04:18:58;;;;;;;19.58;9.52;;;;;;;;;;5078609;28;20056;-81
2022/10/15 04:21:28;;;;;;;15.60;8.38;;;;;;;;;;5083049;28;20048;-80
2022/10/15 04:23:59;;;;;;;17.00;9.43;;;;;;;;;;5078947;28;20515;-81
2022/10/15 04:26:38;;;;;;;17.45;9.32;;;;;;;;;;5077664;28;20052;-81
2022/10/15 04:29:12;;;;;;;17.27;9.43;;;;;;;;;;5084739;28;20043;-81
2022/10/15 04:31:41;;;;;;;17.17;9.20;;;;;;;;;;5083962;28;20063;-81
2022/10/15 04:34:14;;;;;;;17.17;9.77;;;;;;;;;;5082810;28;20151;-81
2022/10/15 04:36:49;;;;;;;19.77;9.88;;;;;;;;;;5086603;28;20044;-81
2022/10/15 04:39:30;;;;;;;15.85;9.45;;;;;;;;;;5079830;28;20056;-81
2022/10/15 04:41:57;;;;;;;17.85;8.43;;;;;;;;;;5090341;28;20044;-81
2022/10/15 04:44:28;;;;;;;16.25;8.82;;;;;;;;;;5087433;28;20056;-81
2022/10/15 04:46:57;;;;;;;15.02;9.02;;;;;;;;;;5077383;28;20052;-81
2022/10/15 04:49:35;;;;;;;15.90;8.60;;;;;;;;;;5072166;28;20063;-81
2022/10/15 04:52:11;;;;;;;14.80;8.10;;;;;;;;;;5072957;28;20041;-80
2022/10/15 04:55:11;;;;;;;16.48;9.13;;;;;;;;;;5080229;28;20395;-81
2022/10/15 04:57:39;;;;;;;15.23;8.38;;;;;;;;;;5082230;28;20500;-81
2022/10/15 05:00:13;;;;;;;15.38;8.23;;;;;;;;;;5086664;28;20408;-82
2022/10/15 05:03:07;;;;;;;14.23;8.05;;;;;;;;;;5075088;28;20063;-82
2022/10/15 05:05:59;;;;;;;18.92;8.48;;;;;;;;;;5078340;28;20500;-81
2022/10/15 05:08:28;;;;;;;17.23;8.43;;;;;;;;;;5078249;28;20045;-81
2022/10/15 05:11:28;;;;;;;14.60;8.00;;;;;;;;;;5101947;28;20070;-80
2022/10/15 05:13:58;;;;;;;15.55;8.38;;;;;;;;;;5103200;28;20083;-80
2022/10/15 05:16:32;;;;;;;17.27;8.27;;;;;;;;;;5083359;28;20055;-81
2022/10/15 05:19:02;;;;;;;13.68;7.60;;;;;;;;;;5085678;28;20060;-81
2022/10/15 05:21:37;;;;;;;19.88;8.45;;;;;;;;;;5075416;28;20404;-80
2022/10/15 05:24:14;;;;;;;15.60;7.47;;;;;;;;;;5084144;28;20059;-80
2022/10/15 05:27:10;;;;;;;13.05;7.28;;;;;;;;;;5078843;28;20064;-81
2022/10/15 05:29:43;;;;;;;16.15;8.27;;;;;;;;;;5080916;28;20488;-81
2022/10/15 05:32:11;;;;;;;15.43;7.93;;;;;;;;;;5076253;28;20052;-81
2022/10/15 05:34:40;;;;;;;14.30;8.20;;;;;;;;;;5077723;28;20044;-80
2022/10/15 05:37:15;;;;;;;15.98;8.52;;;;;;;;;;5079612;28;20048;-81
2022/10/15 05:39:44;;;;;;;11.95;7.03;;;;;;;;;;5085312;28;20059;-81
2022/10/15 05:42:12;;;;;;;16.25;6.70;;;;;;;;;;5087272;28;20055;-80
2022/10/15 05:44:46;;;;;;;15.55;8.13;;;;;;;;;;5080051;28;20511;-81
2022/10/15 05:47:14;;;;;;;12.10;7.03;;;;;;;;;;5077914;28;20059;-81
2022/10/15 05:49:42;;;;;;;15.13;7.00;;;;;;;;;;5081329;28;20064;-81
2022/10/15 05:52:15;;;;;;;16.15;6.93;;;;;;;;;;5080200;28;20048;-80
2022/10/15 05:55:08;;;;;;;15.32;7.55;;;;;;;;;;5080981;28;20068;-81
2022/10/15 05:57:36;;;;;;;15.57;7.60;;;;;;;;;;5078302;28;20512;-81
2022/10/15 06:00:05;;;;;;;14.88;7.32;;;;;;;;;;5078470;28;20048;-81
2022/10/15 06:02:40;;;;;;;13.27;7.30;;;;;;;;;;5088442;28;20040;-81
2022/10/15 06:05:13;;;;;;;17.52;7.07;;;;;;;;;;5080786;28;20044;-81
2022/10/15 06:07:46;;;;;;;17.55;8.23;;;;;;;;;;5088147;28;20047;-81
2022/10/15 06:10:20;;;;;;;18.45;8.05;;;;;;;;;;5081325;28;20501;-80
2022/10/15 06:12:53;;;;;;;14.60;7.97;;;;;;;;;;5089420;28;20036;-81
2022/10/15 06:15:20;;;;;;;16.02;7.47;;;;;;;;;;5096556;28;20047;-81
2022/10/15 06:17:53;;;;;;;16.10;7.50;;;;;;;;;;5088176;28;20043;-81
2022/10/15 06:20:26;;;;;;;15.38;8.02;;;;;;;;;;5097427;28;20044;-81
2022/10/15 06:23:00;;;;;;;17.23;8.48;;;;;;;;;;5075582;28;20048;-82
2022/10/15 06:25:34;;;;;;;16.00;8.13;;;;;;;;;;5089494;28;20491;-81
2022/10/15 06:28:08;;;;;;;15.43;8.02;;;;;;;;;;5083248;28;20076;-81
2022/10/15 06:30:44;;;;;;;15.55;8.48;;;;;;;;;;5079616;28;20048;-82
2022/10/15 06:33:16;;;;;;;16.63;8.13;;;;;;;;;;5082530;28;20045;-82
2022/10/15 06:35:49;;;;;;;16.58;7.93;;;;;;;;;;5079751;28;20055;-81
2022/10/15 06:38:22;;;;;;;18.67;8.50;;;;;;;;;;5088932;28;20420;-82
2022/10/15 06:40:56;;;;;;;15.10;8.48;;;;;;;;;;5081454;28;20044;-82
2022/10/15 06:43:29;;;;;;;15.68;8.23;;;;;;;;;;5086159;28;20044;-82
2022/10/15 06:46:02;;;;;;;14.38;8.40;;;;;;;;;;5082193;28;20055;-83
2022/10/15 06:48:35;;;;;;;18.42;8.65;;;;;;;;;;5085922;28;20047;-82
2022/10/15 06:51:03;;;;;;;18.67;9.20;;;;;;;;;;5077493;28;20048;-82
2022/10/15 06:53:32;;;;;;;18.08;8.57;;;;;;;;;;5094056;28;20052;-82
2022/10/15 06:56:02;;;;;;;19.45;9.55;;;;;;;;;;5088875;28;20055;-82
2022/10/15 06:58:37;;;;;;;16.20;8.15;;;;;;;;;;5080099;28;20040;-83
2022/10/15 07:01:10;;;;;;;15.73;8.07;;;;;;;;;;5080724;28;20056;-82
2022/10/15 07:03:43;;;;;;;18.92;9.48;;;;;;;;;;5075660;28;20488;-84
2022/10/15 07:06:11;;;;;;;18.05;9.13;;;;;;;;;;5082644;28;20048;-83
2022/10/15 07:08:38;;;;;;;19.60;8.93;;;;;;;;;;5089568;28;20047;-82
2022/10/15 07:11:12;;;;;;;16.52;8.55;;;;;;;;;;5088958;28;20431;-83
2022/10/15 07:13:45;;;;;;;16.17;8.48;;;;;;;;;;5090420;28;20052;-82
2022/10/15 07:16:13;;;;;;;22.00;9.55;;;;;;;;;;5080228;28;20052;-82
2022/10/15 07:18:41;;;;;;;16.13;8.20;;;;;;;;;;5077090;28;20059;-86
2022/10/15 07:21:13;;;;;;;21.58;9.13;;;;;;;;;;5084667;28;20059;-81
2022/10/15 07:23:46;;;;;;;16.85;8.20;;;;;;;;;;5083629;28;20055;-85
2022/10/15 07:26:22;;;;;;;18.13;8.40;;;;;;;;;;5093539;28;20150;-84
2022/10/15 07:28:50;;;;;;;15.95;7.80;;;;;;;;;;5078459;28;20048;-82
2022/10/15 07:31:18;;;;;;;13.98;7.53;;;;;;;;;;5081765;28;20063;-83
2022/10/15 07:33:46;;;;;;;14.95;7.88;;;;;;;;;;5079622;28;20052;-83
2022/10/15 07:36:20;;;;;;;16.90;8.27;;;;;;;;;;5079398;28;20503;-92
2022/10/15 07:38:48;;;;;;;17.52;8.40;;;;;;;;;;5076169;28;20055;-82
2022/10/15 07:41:22;;;;;;;18.42;8.90;;;;;;;;;;5079533;28;20055;-83
2022/10/15 07:43:55;;;;;;;17.35;8.35;;;;;;;;;;5077580;28;20055;-82
2022/10/15 07:46:27;;;;;;;16.50;8.32;;;;;;;;;;5078388;28;20045;-82
2022/10/15 07:49:00;;;;;;;14.88;7.60;;;;;;;;;;5076763;28;20047;-84
2022/10/15 07:51:33;;;;;;;16.52;8.00;;;;;;;;;;5077263;28;20051;-82
2022/10/15 07:54:06;;;;;;;14.77;7.57;;;;;;;;;;5083887;28;20055;-82
2022/10/15 07:56:36;;;;;;;15.05;7.15;;;;;;;;;;5076600;28;20051;-82
2022/10/15 07:59:09;;;;;;;15.55;8.05;;;;;;;;;;5078664;28;20049;-82
2022/10/15 08:01:42;;;;;;;16.38;8.23;;;;;;;;;;5073316;28;20481;-84
2022/10/15 08:04:15;;;;;;;18.08;8.75;;;;;;;;;;5079771;28;20063;-82
2022/10/15 08:06:51;;;;;;;14.02;8.02;;;;;;;;;;5090162;28;20048;-82
2022/10/15 08:09:23;;;;;;;15.82;8.00;;;;;;;;;;5078420;28;20041;-82
2022/10/15 08:11:57;;;;;;;18.73;8.30;;;;;;;;;;5083664;28;20480;-81
2022/10/15 08:14:25;;;;;;;18.75;8.20;;;;;;;;;;5085109;28;20044;-82
2022/10/15 08:16:53;;;;;;;17.33;7.55;;;;;;;;;;5095897;28;20385;-82
2022/10/15 08:19:21;;;;;;;24.05;8.55;;;;;;;;;;5080481;28;20051;-82
2022/10/15 08:21:48;;;;;;;18.52;8.18;;;;;;;;;;5076048;28;20443;-81
2022/10/15 08:24:16;;;;;;;15.27;7.32;;;;;;;;;;5082522;28;20057;-82
2022/10/15 08:26:45;;;;;;;17.83;8.18;;;;;;;;;;5081360;28;20049;-82
2022/10/15 08:29:19;;;;;;;16.52;7.07;;;;;;;;;;5088214;28;20048;-81
2022/10/15 08:31:51;;;;;;;17.23;8.45;;;;;;;;;;5089212;28;20043;-81
2022/10/15 08:34:23;;;;;;;14.63;7.88;;;;;;;;;;5069937;28;20060;-81
2022/10/15 08:36:56;;;;;;;14.63;7.60;;;;;;;;;;5076013;28;20079;-83
2022/10/15 08:39:28;;;;;;;16.23;8.30;;;;;;;;;;5058257;28;20715;-84
2022/10/15 08:41:58;;;;;;;14.60;7.60;;;;;;;;;;5057658;28;20071;-82
2022/10/15 08:44:30;;;;;;;16.85;7.50;;;;;;;;;;5066511;28;20071;-84
2022/10/15 08:46:59;;;;;;;15.00;7.25;;;;;;;;;;5085644;28;21035;-83
2022/10/15 08:49:30;;;;;;;15.57;7.95;;;;;;;;;;5083886;28;20393;-83
2022/10/15 08:52:02;;;;;;;18.10;8.63;;;;;;;;;;5096569;28;20048;-84
2022/10/15 08:54:35;;;;;;;15.73;7.75;;;;;;;;;;5085033;28;20044;-83
2022/10/15 08:57:16;;;;;;;20.27;7.95;;;;;;;;;;5080481;28;20040;-84
2022/10/15 08:59:49;;;;;;;16.15;8.77;;;;;;;;;;5085906;28;20060;-82
2022/10/15 09:02:24;;;;;;;13.77;7.95;;;;;;;;;;5080433;28;20045;-84
2022/10/15 09:05:02;;;;;;;15.88;8.23;;;;;;;;;;5079659;28;20401;-84
2022/10/15 09:07:35;;;;;;;;;;;;;;;;;;5090196;28;20492;-83
2022/10/15 09:10:09;;;;;;;16.17;8.35;;;;;;;;;;5076996;28;20422;-84
2022/10/15 09:12:47;;;;;;;17.75;7.97;;;;;;;;;;5071568;28;20048;-83
2022/10/15 09:15:22;;;;;;;14.77;7.95;;;;;;;;;;5084265;28;20059;-81
2022/10/15 09:17:55;;;;;;;17.48;8.25;;;;;;;;;;5088803;28;20060;-82
2022/10/15 09:20:33;;;;;;;19.10;7.47;;;;;;;;;;5080025;28;20040;-82
2022/10/15 09:23:01;;;;;;;16.00;8.05;;;;;;;;;;5077222;28;20081;-81
2022/10/15 09:25:36;;;;;;;13.63;6.95;;;;;;;;;;5081585;28;20036;-81
2022/10/15 09:28:10;;;;;;;16.60;7.43;;;;;;;;;;5082285;28;20047;-82
2022/10/15 09:30:47;;;;;;;17.65;7.80;;;;;;;;;;5094303;28;20043;-83
2022/10/15 09:33:16;;;;;;;16.23;7.07;;;;;;;;;;5093727;28;20048;-82
2022/10/15 09:35:52;;;;;;;17.45;7.60;;;;;;;;;;5089528;28;20504;-82
2022/10/15 09:38:32;;;;;;;12.65;6.95;;;;;;;;;;5083940;28;20048;-82
2022/10/15 09:41:15;;;;;;;15.60;7.70;;;;;;;;;;5099436;28;20055;-83
2022/10/15 09:43:49;;;;;;;15.13;7.85;;;;;;;;;;5084685;28;20048;-81
2022/10/15 09:46:20;;;;;;;18.65;7.95;;;;;;;;;;5089897;28;20044;-82
2022/10/15 09:48:50;;;;;;;14.27;7.30;;;;;;;;;;5088680;28;20052;-81
2022/10/15 09:51:25;;;;;;;15.30;7.35;;;;;;;;;;5095235;28;20497;-81
2022/10/15 09:54:02;;;;;;;19.70;7.53;;;;;;;;;;5076925;28;20056;-82
2022/10/15 09:56:36;;;;;;;16.50;7.47;;;;;;;;;;5075801;28;20469;-82
2022/10/15 09:59:15;;;;;;;15.75;8.05;;;;;;;;;;5083904;28;20063;-81
2022/10/15 10:01:55;;;;;;;14.00;7.05;;;;;;;;;;5090204;28;20071;-82
2022/10/15 10:04:25;;;;;;;15.82;8.15;;;;;;;;;;5084386;28;20056;-81
2022/10/15 10:06:59;;;;;;;15.40;7.38;;;;;;;;;;5076660;28;20048;-80
2022/10/15 10:09:33;;;;;;;13.02;7.15;;;;;;;;;;5077877;28;20048;-80
2022/10/15 10:12:07;;;;;;;14.63;7.55;;;;;;;;;;5092427;28;20048;-81
2022/10/15 10:14:36;;;;;;;12.98;6.82;;;;;;;;;;5077451;28;20505;-80
2022/10/15 10:17:18;;;;;;;12.35;6.57;;;;;;;;;;5081310;28;20052;-83
2022/10/15 10:20:01;;;;;;;13.05;6.60;;;;;;;;;;5087138;28;20408;-81
2022/10/15 10:22:41;;;;;;;15.23;7.80;;;;;;;;;;5079168;28;20059;-81
2022/10/15 10:25:27;;;;;;;13.05;6.63;;;;;;;;;;5081204;28;20052;-81
2022/10/15 10:28:04;;;;;;;14.55;6.60;;;;;;;;;;5084541;28;20049;-80
2022/10/15 10:30:41;;;;;;;14.70;7.25;;;;;;;;;;5076029;28;20044;-81
2022/10/15 10:33:13;;;;;;;14.43;6.63;;;;;;;;;;5073471;28;20064;-80
2022/10/15 10:35:48;;;;;;;15.48;6.53;;;;;;;;;;5078501;28;20405;-81
2022/10/15 10:38:22;;;;;;;19.90;6.68;;;;;;;;;;5091139;28;20043;-80
2022/10/15 10:40:57;;;;;;;10.77;6.00;;;;;;;;;;5084034;28;20036;-80
2022/10/15 10:43:26;;;;;;;16.27;6.80;;;;;;;;;;5090452;28;20047;-81
2022/10/15 10:46:00;;;;;;;11.10;6.10;;;;;;;;;;5081912;28;20048;-81
2022/10/15 10:48:37;;;;;;;15.10;7.70;;;;;;;;;;5078399;28;20405;-80
2022/10/15 10:51:06;;;;;;;10.53;5.67;;;;;;;;;;5085625;28;20044;-81
2022/10/15 10:53:52;;;;;;;16.65;6.40;;;;;;;;;;5089574;28;20310;-81
2022/10/15 10:56:22;;;;;;;11.27;6.30;;;;;;;;;;5085412;28;20053;-80
2022/10/15 10:58:56;;;;;;;16.65;7.85;;;;;;;;;;5077640;28;20045;-80
2022/10/15 11:01:29;;;;;;;10.60;6.05;;;;;;;;;;5088390;28;20040;-80
2022/10/15 11:04:10;;;;;;;11.40;5.72;;;;;;;;;;5079059;28;20484;-80
2022/10/15 11:06:50;;;;;;;11.88;5.55;;;;;;;;;;5085053;28;20048;-82
2022/10/15 11:09:25;;;;;;;9.95;4.90;;;;;;;;;;5077121;28;20056;-80
2022/10/15 11:11:58;;;;;;;11.10;5.25;;;;;;;;;;5073440;28;20037;-81
2022/10/15 11:14:34;;;;;;;13.45;5.32;;;;;;;;;;5080052;28;20477;-82
2022/10/15 11:17:06;;;;;;;10.00;4.53;;;;;;;;;;5077749;28;20059;-80
2022/10/15 11:19:44;;;;;;;8.88;4.65;;;;;;;;;;5089314;28;20060;-80
2022/10/15 11:22:25;;;;;;;8.48;4.60;;;;;;;;;;5082878;28;20062;-82
2022/10/15 11:25:06;;;;;;;9.73;4.70;;;;;;;;;;5078590;28;20397;-80
2022/10/15 11:27:41;;;;;;;8.82;4.95;;;;;;;;;;5077295;28;20059;-80
2022/10/15 11:30:19;;;;;;;9.20;4.40;;;;;;;;;;5082242;28;20048;-80
2022/10/15 11:32:53;;;;;;;10.75;4.97;;;;;;;;;;5077515;28;20040;-80
2022/10/15 11:35:38;;;;;;;9.60;4.85;;;;;;;;;;5077180;28;20053;-80
2022/10/15 11:38:17;;;;;;;8.25;4.10;;;;;;;;;;5083578;28;20051;-81
2022/10/15 11:41:03;;;;;;;8.20;4.25;;;;;;;;;;5076850;28;20048;-82
2022/10/15 11:43:43;;;;;;;6.93;3.90;;;;;;;;;;5079300;28;20047;-82
2022/10/15 11:46:18;;;;;;;11.40;4.55;;;;;;;;;;5092850;28;20048;-80
2022/10/15 11:48:55;;;;;;;7.72;3.67;;;;;;;;;;5074576;28;20384;-80
2022/10/15 11:51:33;;;;;;;6.68;3.45;;;;;;;;;;5080805;28;20056;-80
2022/10/15 11:54:13;;;;;;;8.07;4.10;;;;;;;;;;5085283;28;20394;-82
2022/10/15 11:56:48;;;;;;;10.48;4.50;;;;;;;;;;5080667;28;20051;-82
2022/10/15 11:59:26;;;;;;;10.10;4.65;;;;;;;;;;5081858;28;20074;-81
2022/10/15 12:02:00;;;;;;;9.90;4.22;;;;;;;;;;5081667;28;20036;-80
2022/10/15 12:04:36;;;;;;;8.60;4.35;;;;;;;;;;5083728;28;20040;-82
2022/10/15 12:07:06;;;;;;;9.10;4.13;;;;;;;;;;5077556;28;20060;-82
2022/10/15 12:09:36;;;;;;;9.07;3.72;;;;;;;;;;5084421;28;20055;-81
2022/10/15 12:12:12;;;;;;;10.35;4.75;;;;;;;;;;5081793;28;20051;-81
2022/10/15 12:14:48;;;;;;;9.02;4.20;;;;;;;;;;5079875;28;20048;-81
2022/10/15 12:17:19;;;;;;;8.77;4.40;;;;;;;;;;5080715;28;20052;-81
2022/10/15 12:19:49;;;;;;;9.43;4.35;;;;;;;;;;5086959;28;20043;-81
2022/10/15 12:22:34;;;;;;;10.02;4.13;;;;;;;;;;5083081;28;20057;-82
2022/10/15 12:25:27;;;;;;;7.95;4.20;;;;;;;;;;5080111;28;20059;-81
2022/10/15 12:28:00;;;;;;;8.52;4.45;;;;;;;;;;5079048;28;20110;-81
2022/10/15 12:30:35;;;;;;;10.38;4.78;;;;;;;;;;5083685;28;20044;-82
2022/10/15 12:33:23;;;;;;;8.50;4.47;;;;;;;;;;5081172;28;20047;-82
2022/10/15 12:35:56;;;;;;;10.52;4.80;;;;;;;;;;5074506;28;20051;-80
2022/10/15 12:38:31;;;;;;;12.90;4.72;;;;;;;;;;5080607;28;20047;-82
2022/10/15 12:41:06;;;;;;;7.20;3.58;;;;;;;;;;5076309;28;20071;-81
2022/10/15 12:43:41;;;;;;;8.88;4.18;;;;;;;;;;5099195;27;20044;-81
2022/10/15 12:46:14;;;;;;;7.97;3.65;;;;;;;;;;5080822;28;20095;-80
2022/10/15 12:48:46;;;;;;;8.75;3.20;;;;;;;;;;5080400;28;20857;-82
2022/10/15 12:51:37;;;;;;;6.90;3.63;;;;;;;;;;5080678;28;20055;-81
2022/10/15 12:54:23;;;;;;;7.72;3.88;;;;;;;;;;5082819;28;20047;-81
2022/10/15 12:56:58;;;;;;;7.15;3.70;;;;;;;;;;5080929;28;20130;-81
2022/10/15 12:59:52;;;;;;;7.15;3.85;;;;;;;;;;5082730;28;20043;-81
2022/10/15 13:02:37;;;;;;;6.80;3.42;;;;;;;;;;5087202;28;20049;-83
2022/10/15 13:05:23;;;;;;;7.05;3.05;;;;;;;;;;5074608;28;20489;-82
2022/10/15 13:07:58;;;;;;;7.22;3.50;;;;;;;;;;5076238;28;20051;-82
2022/10/15 13:10:33;;;;;;;7.80;3.45;;;;;;;;;;5084540;28;20047;-81
2022/10/15 13:13:12;;;;;;;6.13;3.22;;;;;;;;;;5081252;28;20037;-82
2022/10/15 13:15:50;;;;;;;8.13;3.10;;;;;;;;;;5082926;28;20373;-82
2022/10/15 13:18:21;;;;;;;6.30;3.45;;;;;;;;;;5078321;28;20405;-82
2022/10/15 13:20:55;;;;;;;7.13;2.83;;;;;;;;;;5084038;28;20047;-81
2022/10/15 13:23:28;;;;;;;4.75;2.60;;;;;;;;;;5090619;28;20049;-80
2022/10/15 13:26:11;;;;;;;6.88;3.15;;;;;;;;;;5084236;28;20071;-83
2022/10/15 13:28:40;;;;;;;4.47;2.45;;;;;;;;;;5089301;28;20047;-81
2022/10/15 13:31:15;;;;;;;12.30;2.92;;;;;;;;;;5084696;28;20048;-81
2022/10/15 13:33:47;;;;;;;5.85;2.67;;;;;;;;;;5087887;28;20055;-81
2022/10/15 13:36:22;;;;;;;7.47;2.60;;;;;;;;;;5082963;28;20840;-80
2022/10/15 13:38:54;;;;;;;3.55;1.85;;;;;;;;;;5076672;28;20055;-82
2022/10/15 13:41:28;;;;;;;6.47;2.30;;;;;;;;;;5084561;28;20052;-82
2022/10/15 13:44:01;;;;;;;2.88;1.80;;;;;;;;;;5078953;28;20626;-82
2022/10/15 13:46:37;;;;;;;3.63;2.10;;;;;;;;;;5078657;28;20389;-81
2022/10/15 13:49:12;;;;;;;5.30;2.13;;;;;;;;;;5084338;28;20477;-81
2022/10/15 13:51:46;;;;;;;4.25;2.10;;;;;;;;;;5056562;28;20063;-81
2022/10/15 13:54:20;;;;;;;5.53;2.50;;;;;;;;;;5053168;28;20481;-82
2022/10/15 13:56:54;;;;;;;4.88;2.35;;;;;;;;;;5058180;28;20052;-82
2022/10/15 13:59:28;;;;;;;9.05;2.63;;;;;;;;;;5057055;28;20044;-81
2022/10/15 14:02:03;;;;;;;4.32;2.55;;;;;;;;;;5054857;28;20741;-81
2022/10/15 14:04:32;;;;;;;4.43;2.50;;;;;;;;;;5056298;28;20932;-82
2022/10/15 14:07:21;;;;;;;5.32;2.78;;;;;;;;;;5054004;28;20052;-82
2022/10/15 14:09:49;;;;;;;7.50;3.20;;;;;;;;;;5059857;28;20051;-82
2022/10/15 14:12:22;;;;;;;6.15;3.63;;;;;;;;;;5055528;28;20053;-82
2022/10/15 14:14:55;;;;;;;10.38;5.07;;;;;;;;;;5055322;28;20555;-81
2022/10/15 14:17:28;;;;;;;10.38;4.38;;;;;;;;;;5057771;28;20918;-82
2022/10/15 14:19:59;;;;;;;9.75;4.13;;;;;;;;;;5053376;28;20388;-82
2022/10/15 14:22:27;;;;;;;7.97;4.90;;;;;;;;;;5055216;28;20555;-83
2022/10/15 14:25:07;;;;;;;11.35;4.97;;;;;;;;;;5048335;28;20075;-82
2022/10/15 14:27:44;;;;;;;10.10;5.20;;;;;;;;;;5053142;28;20056;-82
2022/10/15 14:30:25;;;;;;;11.32;6.43;;;;;;;;;;5047079;28;20087;-81
2022/10/15 14:37:18;;;;;;;10.77;5.80;;;;;;;;;;5066959;28;20044;-83
2022/10/15 14:39:48;;;;;;;10.98;6.38;;;;;;;;;;5051815;28;20060;-81
2022/10/15 14:42:26;;;;;;;10.02;6.20;;;;;;;;;;5057266;28;20493;-82
2022/10/15 14:45:10;;;;;;;9.85;5.60;;;;;;;;;;5057605;28;20055;-81
2022/10/15 14:47:45;;;;;;;10.30;6.07;;;;;;;;;;5055206;28;20057;-82
2022/10/15 14:50:12;;;;;;;10.65;6.40;;;;;;;;;;5061187;28;20053;-82
2022/10/15 14:52:43;;;;;;;10.43;6.32;;;;;;;;;;5059426;28;20146;-83
2022/10/15 14:55:31;;;;;;;11.57;6.63;;;;;;;;;;5047646;28;20044;-81
2022/10/15 14:58:07;;;;;;;11.18;6.68;;;;;;;;;;5039585;28;20052;-81
2022/10/15 15:00:41;;;;;;;10.15;6.07;;;;;;;;;;5042663;28;20044;-80
2022/10/15 15:03:15;;;;;;;12.63;6.82;;;;;;;;;;5045579;28;20059;-80
2022/10/15 15:05:49;;;;;;;12.07;6.28;;;;;;;;;;5047611;28;20056;-80
2022/10/15 15:08:22;;;;;;;13.80;9.30;;;;;;;;;;5051155;28;20067;-80
2022/10/15 15:10:57;;;;;;;15.88;7.43;;;;;;;;;;5049664;28;20049;-79
2022/10/15 15:13:32;;;;;;;13.23;8.13;;;;;;;;;;5049027;28;20056;-80
2022/10/15 15:16:05;;;;;;;15.77;8.63;;;;;;;;;;5048939;28;20063;-81
2022/10/15 15:18:33;;;;;;;16.33;7.88;;;;;;;;;;5048863;28;20713;-81
2022/10/15 15:21:07;;;;;;;12.40;7.38;;;;;;;;;;5045884;28;20493;-80